sim
Sign-in with your pilot id or email,
or register
Callsign
Passwort

Schedule Details

Flight Number: DLH2317 (2)
Departure: Luxembourg Findel Airport (ELLX) at 08:15
Arrival: Munich Airport (EDDM) at 09:20
Route: Lufthansa Passenger Schedule. Enter filed route here before submitting Pirep.

Weather Information
Getting current METAR information for ELLX 262120Z 30008KT 270V350 6000 -RA BKN005 08/07 Q1001 TEMPO 3000 +RA BKN007
Getting current METAR information for EDDM 262120Z 24018KT 9999 OVC023 07/04 Q1001 NOSIG

Schedule Frequency

Route Map